Time;durP1;ratioP1;P1;durP2;ratioP2;P2;SDS_P1;SDS_P2;PMS_P1;PMS_P2;Temp;Humidity;BMP_temperature;BMP_pressure;BME280_temperature;BME280_humidity;BME280_pressure;Samples;Min_cycle;Max_cycle;Signal;HPM_P1;HPM_P2
2022/03/20 00:02:17;;;;;;;14.57;6.53;;;;;;;0.57;38.99;101793.22;4861442;29;20127;-66
2022/03/20 00:04:41;;;;;;;12.50;6.25;;;;;;;0.57;38.73;101794.97;4862584;29;20040;-65
2022/03/20 00:07:11;;;;;;;13.07;6.10;;;;;;;0.51;39.36;101792.34;4862493;29;20063;-67
2022/03/20 00:09:36;;;;;;;14.48;6.90;;;;;;;0.49;39.25;101794.06;4862751;29;20112;-65
2022/03/20 00:12:00;;;;;;;10.82;5.90;;;;;;;0.43;39.61;101791.44;4862529;29;20048;-64
2022/03/20 00:14:25;;;;;;;13.38;6.53;;;;;;;0.44;39.67;101790.56;4862416;29;20041;-64
2022/03/20 00:16:50;;;;;;;11.57;6.43;;;;;;;0.45;39.56;101792.31;4862434;29;20072;-66
2022/03/20 00:19:15;;;;;;;15.20;6.18;;;;;;;0.43;39.52;101787.06;4860903;29;20083;-65
2022/03/20 00:21:40;;;;;;;8.88;5.57;;;;;;;0.45;39.14;101787.06;4862317;29;20108;-65
2022/03/20 00:24:05;;;;;;;16.30;9.10;;;;;;;0.47;39.18;101785.31;4861965;29;20064;-65
2022/03/20 00:26:30;;;;;;;9.20;5.97;;;;;;;0.48;39.60;101787.94;4859020;29;20044;-65
2022/03/20 00:28:55;;;;;;;14.75;5.82;;;;;;;0.49;39.19;101784.44;4861182;29;20058;-64
2022/03/20 00:31:20;;;;;;;9.32;5.30;;;;;;;0.48;38.83;101782.69;4845132;29;20413;-64
2022/03/20 00:33:45;;;;;;;9.27;5.18;;;;;;;0.49;39.55;101791.44;4860648;29;20052;-65
2022/03/20 00:36:10;;;;;;;13.32;5.68;;;;;;;0.46;39.28;101781.81;4845045;29;20056;-64
2022/03/20 00:38:34;;;;;;;12.38;5.95;;;;;;;0.44;39.22;101775.69;4861951;29;20420;-65
2022/03/20 00:40:59;;;;;;;8.80;6.05;;;;;;;0.46;39.46;101771.31;4861656;29;20044;-64
2022/03/20 00:43:24;;;;;;;10.65;5.28;;;;;;;0.47;39.30;101767.81;4861759;29;20044;-65
2022/03/20 00:45:49;;;;;;;10.35;6.32;;;;;;;0.41;39.49;101764.31;4860673;29;20055;-72
2022/03/20 00:48:14;;;;;;;9.45;5.20;;;;;;;0.35;39.52;101766.03;4854822;29;20694;-71
2022/03/20 00:50:39;;;;;;;15.98;7.05;;;;;;;0.34;39.74;101768.63;4845852;29;20055;-67
2022/03/20 00:53:04;;;;;;;16.60;7.20;;;;;;;0.28;39.79;101766.88;4849723;29;20044;-67
2022/03/20 00:55:29;;;;;;;12.63;6.43;;;;;;;0.27;40.20;101777.34;4850798;29;20122;-63
2022/03/20 00:57:54;;;;;;;14.35;6.88;;;;;;;0.29;40.37;101765.13;4881501;29;20241;-64
2022/03/20 01:00:18;;;;;;;10.73;6.60;;;;;;;0.29;39.69;101768.63;4883063;29;20047;-63
2022/03/20 01:02:44;;;;;;;11.32;6.07;;;;;;;0.27;39.95;101770.38;4886121;29;20047;-67
2022/03/20 01:05:10;;;;;;;11.20;5.65;;;;;;;0.17;40.70;101768.56;4887071;29;20130;-66
2022/03/20 01:07:36;;;;;;;11.30;6.15;;;;;;;0.19;40.36;101763.34;4889410;29;20040;-68
2022/03/20 01:10:01;;;;;;;11.88;5.80;;;;;;;0.16;40.62;101763.31;4873456;29;20489;-65
2022/03/20 01:12:26;;;;;;;13.60;6.32;;;;;;;0.13;40.74;101765.91;4862035;29;20051;-63
2022/03/20 01:14:51;;;;;;;14.27;7.35;;;;;;;0.10;41.09;101765.94;4863509;29;20048;-64
2022/03/20 01:17:15;;;;;;;10.43;5.57;;;;;;;0.08;41.11;101771.16;4863210;29;20464;-65
2022/03/20 01:19:40;;;;;;;11.07;6.32;;;;;;;0.07;41.19;101774.66;4861289;29;20151;-66
2022/03/20 01:22:05;;;;;;;10.48;6.05;;;;;;;0.05;41.03;101765.88;4863035;29;20052;-65
2022/03/20 01:24:30;;;;;;;10.35;5.68;;;;;;;0.06;40.54;101761.53;4844006;29;20060;-65
2022/03/20 01:26:55;;;;;;;12.13;5.90;;;;;;;0.06;40.48;101762.41;4862763;29;20484;-64
2022/03/20 01:29:20;;;;;;;12.73;6.38;;;;;;;0.05;40.76;101767.63;4852608;29;20040;-64
2022/03/20 01:31:44;;;;;;;11.52;6.30;;;;;;;-0.02;42.17;101767.63;4848221;29;20063;-66
2022/03/20 01:34:09;;;;;;;12.68;6.53;;;;;;;-0.04;42.06;101765.84;4842546;29;20045;-66
2022/03/20 01:36:34;;;;;;;12.65;6.63;;;;;;;-0.04;42.03;101766.72;4850253;29;20056;-66
2022/03/20 01:38:59;;;;;;;10.75;5.88;;;;;;;-0.03;41.71;101762.34;4856847;29;20755;-64
2022/03/20 01:41:24;;;;;;;11.88;6.53;;;;;;;-0.05;41.74;101762.34;4856358;29;20622;-65
2022/03/20 01:43:50;;;;;;;13.48;6.40;;;;;;;-0.06;42.46;101767.56;4873693;29;20099;-65
2022/03/20 01:46:15;;;;;;;12.05;7.40;;;;;;;-0.07;41.86;101760.56;4866636;29;20049;-66
2022/03/20 01:48:40;;;;;;;12.98;5.93;;;;;;;-0.07;41.88;101756.22;4859123;29;20083;-65
2022/03/20 01:51:04;;;;;;;10.50;6.13;;;;;;;-0.06;42.07;101754.47;4878339;29;20071;-65
2022/03/20 01:53:29;;;;;;;11.23;6.25;;;;;;;-0.12;42.50;101749.19;4857446;29;20052;-64
2022/03/20 01:55:54;;;;;;;15.00;6.13;;;;;;;-0.15;42.67;101750.06;4873925;29;20053;-67
2022/03/20 01:58:19;;;;;;;14.88;6.60;;;;;;;-0.15;42.21;101752.69;4860154;29;20072;-66
2022/03/20 02:00:44;;;;;;;12.00;5.95;;;;;;;-0.20;42.25;101741.28;4855156;29;20052;-64
2022/03/20 02:03:09;;;;;;;10.23;6.20;;;;;;;-0.20;42.66;101748.25;4867457;29;20040;-64
2022/03/20 02:05:34;;;;;;;12.57;6.40;;;;;;;-0.21;43.00;101746.50;4866821;29;20072;-64
2022/03/20 02:08:00;;;;;;;13.38;6.80;;;;;;;-0.24;42.86;101741.25;4878089;29;20400;-75
2022/03/20 02:10:35;;;;;;;12.57;6.88;;;;;;;-0.26;43.42;101730.75;4885948;29;20135;-75
2022/03/20 02:13:00;;;;;;;14.40;5.93;;;;;;;-0.26;43.30;101732.50;4887127;29;20633;-75
2022/03/20 02:15:26;;;;;;;11.30;6.57;;;;;;;-0.27;43.50;101728.13;4884119;29;20579;-70
2022/03/20 02:17:52;;;;;;;9.85;6.75;;;;;;;-0.27;43.24;101726.38;4884468;29;20142;-72
2022/03/20 02:20:22;;;;;;;13.15;6.47;;;;;;;-0.24;43.13;101728.16;4884420;29;20076;-71
2022/03/20 02:22:47;;;;;;;11.88;6.20;;;;;;;-0.25;43.26;101721.16;4877052;29;20048;-74
2022/03/20 02:25:17;;;;;;;14.30;6.80;;;;;;;-0.23;43.44;101725.56;4860196;29;20056;-69
2022/03/20 02:27:44;;;;;;;15.07;6.40;;;;;;;-0.24;43.01;101715.06;4865190;29;20139;-69
2022/03/20 02:30:15;;;;;;;14.52;6.63;;;;;;;-0.24;43.33;101715.06;4870108;29;20056;-70
2022/03/20 02:32:45;;;;;;;12.13;7.07;;;;;;;-0.27;43.56;101721.16;4857513;29;20109;-69
2022/03/20 02:35:14;;;;;;;13.10;7.00;;;;;;;-0.31;44.82;101715.88;4854830;29;20100;-69
2022/03/20 02:37:46;;;;;;;13.52;6.60;;;;;;;-0.30;44.23;101728.09;4855120;29;20180;-72
2022/03/20 02:40:12;;;;;;;9.93;6.35;;;;;;;-0.29;43.58;101719.38;4854235;29;20128;-69
2022/03/20 02:42:40;;;;;;;11.10;6.75;;;;;;;-0.29;43.87;101716.75;4851046;29;20055;-72
2022/03/20 02:45:06;;;;;;;9.07;5.80;;;;;;;-0.30;44.34;101718.50;4849016;29;20058;-70
2022/03/20 02:47:37;;;;;;;14.63;6.97;;;;;;;-0.31;44.77;101726.34;4847426;29;20112;-72
2022/03/20 02:50:18;;;;;;;11.18;6.18;;;;;;;-0.31;45.25;101721.09;4814926;29;20087;-70
2022/03/20 02:53:00;;;;;;;11.00;6.93;;;;;;;-0.40;45.49;101712.34;4847848;29;20053;-69
2022/03/20 02:55:30;;;;;;;11.40;5.90;;;;;;;-0.38;44.60;101712.34;4852198;29;20056;-69
2022/03/20 02:57:57;;;;;;;8.13;5.53;;;;;;;-0.43;44.97;101709.69;4851322;29;20057;-68
2022/03/20 03:00:26;;;;;;;11.15;6.47;;;;;;;-0.42;44.56;101714.06;4847867;29;20075;-68
2022/03/20 03:02:54;;;;;;;11.55;6.70;;;;;;;-0.46;45.49;101711.44;4847553;29;20084;-67
2022/03/20 03:05:20;;;;;;;12.43;7.28;;;;;;;-0.54;46.10;101711.34;4846943;29;20052;-67
2022/03/20 03:13:16;;;;;;;9.30;5.68;;;;;;;-0.54;46.84;101710.47;4847600;29;20061;-67
2022/03/20 03:15:42;;;;;;;12.30;7.47;;;;;;;-0.52;46.35;101708.75;4814728;29;20044;-74
2022/03/20 03:18:07;;;;;;;22.50;7.85;;;;;;;-0.53;46.18;101718.34;4844833;29;20045;-70
2022/03/20 03:20:33;;;;;;;13.90;7.10;;;;;;;-0.57;47.14;101716.59;4845211;29;20048;-68
2022/03/20 03:22:58;;;;;;;17.15;6.97;;;;;;;-0.60;47.22;101715.69;4843861;29;20636;-68
2022/03/20 03:25:23;;;;;;;12.20;7.60;;;;;;;-0.64;47.24;101709.53;4843706;29;20454;-69
2022/03/20 03:27:48;;;;;;;14.63;7.75;;;;;;;-0.67;47.63;101711.25;4843565;29;20060;-72
2022/03/20 03:30:13;;;;;;;13.35;7.60;;;;;;;-0.70;47.90;101714.75;4845305;29;20048;-72
2022/03/20 03:32:40;;;;;;;14.18;7.78;;;;;;;-0.72;47.95;101713.84;4843528;29;20048;-73
2022/03/20 03:37:48;;;;;;;14.00;8.40;;;;;;;-0.63;47.42;101710.41;4843536;29;20049;-72
2022/03/20 03:40:13;;;;;;;14.27;8.23;;;;;;;-0.63;47.33;101706.06;4827761;29;20041;-68
2022/03/20 03:42:37;;;;;;;16.70;8.05;;;;;;;-0.62;47.87;101704.31;4844087;29;20045;-69
2022/03/20 03:45:04;;;;;;;14.32;7.85;;;;;;;-0.58;47.17;101706.97;4842983;29;20040;-71
2022/03/20 03:47:28;;;;;;;19.67;8.88;;;;;;;-0.58;47.23;101709.59;4844196;29;20605;-71
2022/03/20 03:49:53;;;;;;;18.95;9.80;;;;;;;-0.53;47.29;101701.75;4843053;29;20671;-70
2022/03/20 03:52:19;;;;;;;24.67;10.27;;;;;;;-0.46;47.50;101699.22;4844202;29;20142;-71
2022/03/20 03:54:44;;;;;;;15.10;8.13;;;;;;;-0.35;47.31;101695.78;4827673;29;20056;-71
2022/03/20 03:57:09;;;;;;;20.02;10.02;;;;;;;-0.26;47.40;101696.69;4843212;29;20045;-72
2022/03/20 03:59:34;;;;;;;14.70;8.70;;;;;;;-0.19;47.21;101690.59;4842810;29;20112;-72
2022/03/20 04:02:00;;;;;;;21.40;9.57;;;;;;;-0.09;46.86;101689.78;4827539;29;20052;-72
2022/03/20 04:04:25;;;;;;;19.85;10.95;;;;;;;0.08;46.38;101702.09;4842386;29;20053;-72
2022/03/20 04:06:49;;;;;;;17.40;10.38;;;;;;;0.24;45.95;101703.88;4843639;29;20048;-71
2022/03/20 04:09:14;;;;;;;27.33;12.48;;;;;;;0.43;46.22;101696.97;4842527;29;20045;-71
2022/03/20 04:11:39;;;;;;;22.95;11.02;;;;;;;0.65;45.86;101690.91;4842378;29;20053;-72
2022/03/20 04:14:04;;;;;;;20.00;10.75;;;;;;;0.88;45.21;101689.19;4844073;29;20068;-71
2022/03/20 04:16:28;;;;;;;14.57;8.60;;;;;;;1.16;44.50;101689.16;4826985;29;20105;-67
2022/03/20 04:18:53;;;;;;;21.52;9.55;;;;;;;1.41;44.03;101677.75;4827041;29;20087;-67
2022/03/20 04:21:18;;;;;;;17.95;10.27;;;;;;;1.67;43.38;101678.59;4842653;29;20044;-66
2022/03/20 04:23:44;;;;;;;19.88;10.48;;;;;;;1.89;42.95;101674.13;4841969;29;20056;-68
2022/03/20 04:26:10;;;;;;;25.92;10.63;;;;;;;2.10;42.98;101675.81;4826635;29;20048;-68
2022/03/20 04:28:34;;;;;;;20.90;10.52;;;;;;;2.28;42.42;101678.34;4843148;29;20057;-66
2022/03/20 04:31:01;;;;;;;17.42;10.18;;;;;;;2.44;42.09;101669.47;4826721;29;20037;-65
2022/03/20 04:33:26;;;;;;;18.20;9.55;;;;;;;2.67;42.52;101671.09;4842031;29;20047;-66
2022/03/20 04:35:50;;;;;;;14.57;8.23;;;;;;;2.89;42.25;101670.06;4841980;29;20053;-66
2022/03/20 04:38:15;;;;;;;16.65;8.52;;;;;;;3.14;41.35;101674.25;4842096;29;20063;-72
2022/03/20 04:40:40;;;;;;;16.65;8.60;;;;;;;3.34;40.96;101675.81;4843333;29;20040;-72
2022/03/20 04:43:05;;;;;;;15.18;8.85;;;;;;;3.55;40.96;101667.69;4842238;29;20057;-71
2022/03/20 04:45:29;;;;;;;18.38;8.60;;;;;;;3.77;40.78;101666.56;4842192;29;20508;-71
2022/03/20 04:58:48;;;;;;;18.42;8.65;;;;;;;4.83;38.89;101666.91;4842186;29;20037;-65
2022/03/20 05:01:13;;;;;;;16.70;8.75;;;;;;;5.06;38.82;101662.13;4841848;29;20044;-71
2022/03/20 05:03:38;;;;;;;12.88;7.95;;;;;;;5.26;38.39;101653.81;4841970;29;20044;-70
2022/03/20 05:06:05;;;;;;;17.17;8.05;;;;;;;5.53;37.90;101662.19;4857053;29;20053;-71
2022/03/20 05:08:29;;;;;;;15.90;9.38;;;;;;;5.82;37.85;101659.84;4841581;29;20045;-71
2022/03/20 05:13:38;;;;;;;21.70;10.95;;;;;;;6.27;37.06;101651.88;4841424;29;20044;-69
2022/03/20 05:16:04;;;;;;;26.15;14.25;;;;;;;6.47;36.52;101652.28;4825529;29;20097;-70
2022/03/20 05:18:32;;;;;;;24.70;13.32;;;;;;;6.56;36.53;101650.31;4842560;29;20060;-70
2022/03/20 05:20:56;;;;;;;20.70;11.88;;;;;;;6.68;36.29;101656.22;4825910;29;20052;-69
2022/03/20 05:23:21;;;;;;;23.83;11.90;;;;;;;6.92;36.25;101645.91;4856823;29;20100;-70
2022/03/20 05:25:47;;;;;;;27.55;14.07;;;;;;;7.09;35.86;101640.19;4856958;29;20079;-69
2022/03/20 05:28:12;;;;;;;31.98;15.50;;;;;;;7.17;35.53;101629.38;4856914;29;20037;-70
2022/03/20 05:30:36;;;;;;;26.05;14.20;;;;;;;7.33;35.64;101632.53;4826316;29;20060;-70
2022/03/20 05:33:01;;;;;;;27.05;12.93;;;;;;;7.68;34.86;101631.53;4841077;29;20043;-70
2022/03/20 05:35:26;;;;;;;27.15;12.95;;;;;;;8.11;34.32;101617.91;4841523;29;20178;-70
2022/03/20 05:37:52;;;;;;;24.02;11.90;;;;;;;8.53;34.16;101616.63;4841320;29;20133;-70
2022/03/20 05:40:17;;;;;;;24.00;12.63;;;;;;;8.87;33.39;101613.75;4856924;29;20106;-70
2022/03/20 05:42:43;;;;;;;21.20;10.65;;;;;;;9.33;32.55;101617.50;4841377;29;20524;-70
2022/03/20 05:45:12;;;;;;;18.80;10.57;;;;;;;9.75;32.65;101615.09;4841235;29;20060;-71
2022/03/20 05:47:40;;;;;;;16.92;10.60;;;;;;;10.29;31.24;101619.28;4841177;29;20045;-70
2022/03/20 05:50:06;;;;;;;22.60;11.10;;;;;;;11.00;30.43;101597.72;4841081;29;20143;-72
2022/03/20 05:52:31;;;;;;;17.38;10.27;;;;;;;11.67;29.99;101594.78;4842442;29;20049;-75
2022/03/20 05:54:56;;;;;;;21.13;12.65;;;;;;;12.12;28.55;101591.84;4841331;29;20599;-73
2022/03/20 06:00:04;;;;;;;15.73;9.50;;;;;;;12.83;28.10;101594.66;4842618;29;20063;-72
2022/03/20 06:02:39;;;;;;;19.15;10.13;;;;;;;13.38;27.33;101587.38;4841040;29;20093;-73
2022/03/20 06:05:04;;;;;;;19.88;9.88;;;;;;;14.01;26.18;101593.78;4842203;29;20502;-72
2022/03/20 06:07:29;;;;;;;17.63;10.07;;;;;;;14.57;25.56;101588.91;4841326;29;20049;-71
2022/03/20 06:09:54;;;;;;;14.65;9.38;;;;;;;15.13;25.55;101582.91;4856827;29;20056;-70
2022/03/20 06:12:19;;;;;;;18.27;9.88;;;;;;;15.69;24.96;101578.66;4841033;29;20420;-70
2022/03/20 06:14:43;;;;;;;18.65;9.98;;;;;;;16.20;24.46;101569.09;4843063;29;20049;-70
2022/03/20 06:17:09;;;;;;;16.58;8.50;;;;;;;16.72;23.85;101577.34;4843252;29;20048;-69
2022/03/20 06:19:35;;;;;;;25.05;10.98;;;;;;;17.03;23.09;101570.81;4842572;29;20080;-71
2022/03/20 06:21:59;;;;;;;17.23;9.75;;;;;;;17.35;23.07;101565.91;4856793;29;20037;-70
2022/03/20 06:24:24;;;;;;;23.75;11.27;;;;;;;17.83;22.61;101571.56;4840637;29;20069;-72
2022/03/20 06:26:49;;;;;;;21.20;11.27;;;;;;;18.46;22.30;101560.59;4844397;29;20055;-73
2022/03/20 06:29:15;;;;;;;16.85;9.50;;;;;;;19.14;21.62;101552.72;4845433;29;20194;-71
2022/03/20 06:31:40;;;;;;;18.35;9.93;;;;;;;19.55;20.54;101557.63;4846011;29;20420;-70
2022/03/20 06:34:04;;;;;;;17.60;8.70;;;;;;;19.86;20.63;101563.34;4860052;29;20452;-70
2022/03/20 06:36:29;;;;;;;14.60;9.32;;;;;;;20.17;19.93;101551.75;4845707;29;20084;-70
2022/03/20 06:38:55;;;;;;;17.48;9.60;;;;;;;20.54;19.74;101549.59;4829190;29;20053;-69
2022/03/20 06:41:20;;;;;;;13.43;7.80;;;;;;;20.65;19.34;101546.84;4846297;29;20589;-69
2022/03/20 06:43:45;;;;;;;12.55;8.15;;;;;;;21.12;19.15;101550.13;4848409;29;20060;-70
2022/03/20 06:46:10;;;;;;;12.50;8.43;;;;;;;21.64;18.77;101546.50;4846060;29;20100;-70
2022/03/20 06:48:35;;;;;;;18.83;9.63;;;;;;;22.17;18.55;101534.59;4861863;29;20505;-70
2022/03/20 06:51:00;;;;;;;10.93;8.23;;;;;;;22.69;17.96;101544.28;4846126;29;20915;-70
2022/03/20 06:53:25;;;;;;;14.80;8.25;;;;;;;23.18;17.53;101543.31;4862399;29;20052;-71
2022/03/20 06:55:51;;;;;;;11.77;7.38;;;;;;;23.46;16.91;101534.25;4852644;29;20048;-70
2022/03/20 06:58:20;;;;;;;17.60;8.40;;;;;;;23.51;17.13;101542.00;4860862;29;20069;-74
2022/03/20 07:00:46;;;;;;;13.65;7.78;;;;;;;23.75;16.85;101539.63;4855927;29;20040;-71
2022/03/20 07:03:10;;;;;;;13.65;9.00;;;;;;;23.60;16.88;101543.84;4853255;29;20056;-70
2022/03/20 07:05:36;;;;;;;16.67;9.43;;;;;;;23.49;17.16;101536.66;4834742;29;20052;-70
2022/03/20 07:08:03;;;;;;;18.70;8.63;;;;;;;23.99;17.24;101544.56;4849546;29;20045;-74
2022/03/20 07:10:27;;;;;;;13.88;8.15;;;;;;;24.29;16.58;101534.41;4835830;29;20047;-70
2022/03/20 07:15:37;;;;;;;20.83;9.93;;;;;;;24.91;16.33;101528.94;4852155;29;20049;-70
2022/03/20 07:18:03;;;;;;;17.02;9.27;;;;;;;25.30;16.04;101542.25;4849793;29;20481;-72
2022/03/20 07:20:28;;;;;;;11.55;8.00;;;;;;;25.62;15.70;101536.22;4852267;29;20045;-71
2022/03/20 07:22:52;;;;;;;12.13;8.20;;;;;;;25.64;15.70;101526.81;4850328;29;20071;-71
2022/03/20 07:30:44;;;;;;;20.45;8.98;;;;;;;25.65;15.71;101512.13;4844833;29;20108;-70
2022/03/20 07:33:08;;;;;;;14.10;8.10;;;;;;;26.26;15.13;101507.44;4844790;29;20500;-73
2022/03/20 07:35:33;;;;;;;12.73;8.35;;;;;;;26.16;15.08;101509.47;4843590;29;20043;-74
2022/03/20 07:37:58;;;;;;;13.40;9.30;;;;;;;26.08;15.13;101503.94;4843800;29;20056;-71
2022/03/20 07:40:22;;;;;;;11.80;8.20;;;;;;;26.43;14.94;101511.09;4844429;29;20365;-72
2022/03/20 07:42:47;;;;;;;14.13;8.32;;;;;;;26.96;14.73;101503.38;4844530;29;20048;-72
2022/03/20 07:45:12;;;;;;;14.38;8.65;;;;;;;27.66;14.20;101503.63;4844477;29;20162;-72
2022/03/20 07:47:37;;;;;;;12.05;7.53;;;;;;;28.29;13.85;101502.72;4844512;29;20041;-70
2022/03/20 07:50:04;;;;;;;13.38;9.00;;;;;;;28.62;13.46;101494.28;4844566;29;20053;-71
2022/03/20 07:52:29;;;;;;;12.80;8.52;;;;;;;28.42;13.37;101492.00;4859546;29;20576;-72
2022/03/20 07:54:54;;;;;;;11.95;7.13;;;;;;;28.96;13.42;101492.00;4844648;29;20424;-70
2022/03/20 07:57:19;;;;;;;12.18;7.90;;;;;;;29.16;12.87;101490.41;4846753;29;20045;-71
2022/03/20 07:59:44;;;;;;;15.27;8.43;;;;;;;28.63;13.34;101488.63;4862327;29;20048;-71
2022/03/20 08:02:09;;;;;;;14.07;8.45;;;;;;;28.63;13.35;101490.50;4843596;29;20048;-72
2022/03/20 08:04:34;;;;;;;11.48;7.82;;;;;;;29.19;13.27;101490.06;4843126;29;20251;-72
2022/03/20 08:06:59;;;;;;;18.83;8.35;;;;;;;29.87;12.70;101482.66;4842945;29;20037;-73
2022/03/20 08:09:27;;;;;;;13.32;8.32;;;;;;;30.11;12.60;101482.38;4858490;29;20045;-73
2022/03/20 08:11:52;;;;;;;15.82;8.50;;;;;;;30.31;12.14;101479.84;4842496;29;20094;-73
2022/03/20 08:14:17;;;;;;;11.80;8.05;;;;;;;30.69;11.75;101472.25;4843333;29;20132;-73
2022/03/20 08:16:42;;;;;;;13.45;6.80;;;;;;;29.49;12.19;101476.38;4844132;29;20194;-71
2022/03/20 08:19:09;;;;;;;11.80;8.02;;;;;;;30.33;12.21;101469.50;4858610;29;20051;-72
2022/03/20 08:21:34;;;;;;;11.68;7.43;;;;;;;30.90;11.57;101460.38;4843950;29;20044;-72
2022/03/20 08:24:03;;;;;;;17.10;7.75;;;;;;;31.73;11.49;101454.84;4843589;29;20065;-73
2022/03/20 08:26:31;;;;;;;11.20;9.48;;;;;;;32.10;11.11;101455.44;4842574;29;20045;-71
2022/03/20 08:28:56;;;;;;;10.52;8.63;;;;;;;32.68;10.76;101445.63;4844328;29;20396;-73
2022/03/20 08:31:20;;;;;;;12.27;8.27;;;;;;;32.91;10.56;101444.41;4843789;29;20518;-74
2022/03/20 08:33:45;;;;;;;12.68;8.30;;;;;;;32.56;10.42;101429.91;4842508;29;20123;-72
2022/03/20 08:36:13;;;;;;;13.77;7.80;;;;;;;33.02;10.50;101439.09;4843552;29;20135;-72
2022/03/20 08:38:39;;;;;;;8.23;7.10;;;;;;;33.01;10.15;101423.56;4844030;29;20045;-73
2022/03/20 08:41:04;;;;;;;9.95;7.65;;;;;;;33.11;10.09;101428.66;4844495;29;20529;-72
2022/03/20 08:43:29;;;;;;;12.40;8.23;;;;;;;33.45;10.13;101436.72;4842885;29;20045;-71
2022/03/20 08:45:54;;;;;;;10.73;7.80;;;;;;;34.17;9.92;101427.31;4827049;29;20037;-73
2022/03/20 08:48:19;;;;;;;9.45;7.75;;;;;;;34.55;9.46;101416.22;4842774;29;20041;-70
2022/03/20 08:50:48;;;;;;;9.80;6.95;;;;;;;34.34;9.32;101430.44;4842980;29;20133;-71
2022/03/20 08:53:13;;;;;;;10.25;6.68;;;;;;;33.26;9.85;101409.97;4857839;29;20049;-71
2022/03/20 08:55:38;;;;;;;9.98;7.20;;;;;;;33.30;9.85;101413.97;4843596;29;20113;-72
2022/03/20 08:58:04;;;;;;;8.32;7.28;;;;;;;33.79;9.76;101415.38;4842231;29;20041;-73
2022/03/20 09:00:29;;;;;;;10.27;6.75;;;;;;;34.39;9.31;101411.25;4843507;29;20469;-71
2022/03/20 09:02:54;;;;;;;9.45;6.78;;;;;;;35.02;9.11;101407.56;4843208;29;20504;-71
2022/03/20 09:05:20;;;;;;;10.18;7.28;;;;;;;35.47;8.69;101414.59;4843354;29;20523;-71
2022/03/20 09:07:47;;;;;;;9.02;6.45;;;;;;;35.59;8.40;101421.06;4843367;29;20593;-72
2022/03/20 09:10:16;;;;;;;7.95;7.15;;;;;;;35.26;8.82;101415.03;4842195;29;20076;-70
2022/03/20 09:12:45;;;;;;;10.60;6.95;;;;;;;35.47;8.61;101409.03;4857163;29;20456;-70
2022/03/20 09:15:12;;;;;;;8.32;6.65;;;;;;;35.76;8.64;101396.34;4826228;29;20055;-71
2022/03/20 09:20:21;;;;;;;8.38;6.43;;;;;;;37.05;7.68;101392.88;4841663;29;20056;-70
2022/03/20 09:22:46;;;;;;;11.25;6.65;;;;;;;37.40;7.76;101403.16;4841415;29;20068;-71
2022/03/20 09:25:11;;;;;;;8.77;6.90;;;;;;;37.68;7.18;101400.50;4842966;29;20064;-71
2022/03/20 09:27:36;;;;;;;8.10;7.28;;;;;;;37.71;7.14;101382.44;4857142;29;20049;-71
2022/03/20 09:30:03;;;;;;;16.23;7.25;;;;;;;37.21;6.97;101379.38;4843121;29;20113;-70
2022/03/20 09:32:28;;;;;;;9.13;7.03;;;;;;;36.64;6.70;101374.34;4857289;29;20048;-70
2022/03/20 09:34:53;;;;;;;13.65;7.10;;;;;;;36.36;6.77;101368.59;4842792;29;20041;-72
2022/03/20 09:37:18;;;;;;;7.65;6.40;;;;;;;36.68;6.87;101361.63;4841452;29;20453;-70
2022/03/20 09:39:43;;;;;;;7.35;6.40;;;;;;;36.90;7.28;101356.38;4841308;29;20494;-70
2022/03/20 09:42:07;;;;;;;8.80;6.88;;;;;;;37.05;6.69;101361.44;4842784;29;20481;-71
2022/03/20 09:44:34;;;;;;;7.10;5.63;;;;;;;36.82;6.43;101350.31;4841876;29;20469;-71
2022/03/20 09:47:00;;;;;;;9.60;6.15;;;;;;;35.97;6.92;101332.00;4844799;29;20068;-73
2022/03/20 09:49:25;;;;;;;10.65;6.20;;;;;;;34.51;7.57;101348.53;4852158;29;20060;-72
2022/03/20 09:51:50;;;;;;;9.05;6.15;;;;;;;35.44;7.19;101340.13;4852810;29;20362;-71
2022/03/20 09:54:16;;;;;;;7.15;6.03;;;;;;;35.46;7.49;101329.66;4850056;29;20056;-73
2022/03/20 09:56:42;;;;;;;7.85;5.93;;;;;;;35.22;7.31;101333.34;4847159;29;20048;-73
2022/03/20 09:59:08;;;;;;;10.10;5.68;;;;;;;34.11;7.65;101324.91;4850717;29;20047;-73
2022/03/20 10:01:34;;;;;;;9.35;5.95;;;;;;;34.36;7.47;101317.53;4845031;29;20477;-75
2022/03/20 10:04:10;;;;;;;8.15;6.03;;;;;;;35.20;6.93;101308.63;4847135;29;20052;-73
2022/03/20 10:06:37;;;;;;;9.00;5.45;;;;;;;35.36;6.60;101304.41;4845744;29;20044;-73
2022/03/20 10:09:05;;;;;;;7.90;4.65;;;;;;;35.42;6.43;101295.16;4861322;29;20052;-74
2022/03/20 10:11:30;;;;;;;5.10;4.63;;;;;;;34.55;6.81;101304.56;4845954;29;20045;-74
2022/03/20 10:14:18;;;;;;;5.18;4.63;;;;;;;34.11;6.77;101284.25;4848030;29;20419;-73
2022/03/20 10:16:48;;;;;;;9.30;4.50;;;;;;;31.93;7.00;101267.38;4848712;29;20510;-73
2022/03/20 10:19:32;;;;;;;7.10;4.45;;;;;;;31.44;7.79;101275.06;4849114;29;20048;-74
2022/03/20 10:22:03;;;;;;;5.90;4.20;;;;;;;30.75;8.02;101272.34;4848115;29;20044;-72
2022/03/20 10:24:30;;;;;;;8.75;5.05;;;;;;;29.27;8.62;101266.59;4849075;29;20096;-71
2022/03/20 10:26:58;;;;;;;7.15;4.00;;;;;;;26.93;9.68;101264.72;4866185;29;20059;-73
2022/03/20 10:29:23;;;;;;;4.68;4.03;;;;;;;24.17;11.23;101256.59;4850621;29;20128;-72
2022/03/20 10:31:50;;;;;;;6.18;4.22;;;;;;;22.65;12.21;101260.97;4850323;29;20076;-72
2022/03/20 10:34:15;;;;;;;7.88;4.30;;;;;;;20.79;13.63;101246.66;4850299;29;20061;-71
2022/03/20 10:36:42;;;;;;;7.18;4.28;;;;;;;19.14;15.05;101254.47;4847343;29;20049;-73
2022/03/20 10:39:12;;;;;;;4.82;3.83;;;;;;;18.45;16.08;101248.31;4869368;29;20048;-74
2022/03/20 10:41:38;;;;;;;7.35;3.95;;;;;;;17.55;16.45;101240.88;4864102;29;20056;-72
2022/03/20 10:44:11;;;;;;;10.35;4.80;;;;;;;16.86;17.46;101227.09;4847137;29;20045;-74
2022/03/20 10:46:36;;;;;;;10.63;4.10;;;;;;;16.22;17.10;101220.91;4868863;29;20415;-73
2022/03/20 10:49:03;;;;;;;7.20;3.92;;;;;;;15.72;18.03;101234.25;4867734;29;20464;-74
2022/03/20 10:51:38;;;;;;;5.45;3.80;;;;;;;15.53;18.46;101213.97;4838953;29;20037;-73
2022/03/20 10:54:04;;;;;;;7.75;4.25;;;;;;;15.10;19.22;101201.66;4855606;29;20213;-73
2022/03/20 10:56:28;;;;;;;5.20;3.65;;;;;;;14.62;19.81;101206.53;4862440;29;20261;-73
2022/03/20 10:58:53;;;;;;;5.68;3.22;;;;;;;14.49;18.62;101197.53;4850331;29;20130;-72
2022/03/20 11:01:33;;;;;;;5.50;3.10;;;;;;;14.20;19.32;101195.78;4834268;29;20041;-73
2022/03/20 11:04:00;;;;;;;5.00;3.45;;;;;;;13.65;19.87;101194.66;4852358;29;20131;-73
2022/03/20 11:06:25;;;;;;;5.82;3.40;;;;;;;13.50;19.25;101197.34;4836033;29;20049;-73
2022/03/20 11:08:50;;;;;;;8.93;3.30;;;;;;;13.51;19.56;101183.88;4855283;29;20040;-71
2022/03/20 11:11:18;;;;;;;7.70;4.15;;;;;;;13.16;19.93;101180.56;4856985;29;20053;-74
2022/03/20 11:13:46;;;;;;;11.25;5.20;;;;;;;13.13;19.58;101179.84;4855003;29;20045;-74
2022/03/20 11:16:12;;;;;;;6.70;3.47;;;;;;;12.95;19.56;101171.94;4854327;29;20053;-74
2022/03/20 11:18:42;;;;;;;10.25;4.10;;;;;;;13.04;19.73;101175.88;4851306;29;20045;-73
2022/03/20 11:21:09;;;;;;;5.38;3.90;;;;;;;12.86;19.66;101159.06;4845053;29;20071;-73
2022/03/20 11:23:35;;;;;;;8.05;3.97;;;;;;;12.68;20.26;101174.34;4854653;29;20060;-72
2022/03/20 11:26:03;;;;;;;9.90;4.05;;;;;;;12.45;20.68;101169.41;4872541;29;20047;-74
2022/03/20 11:28:31;;;;;;;4.55;2.97;;;;;;;12.41;20.81;101159.84;4873574;29;20090;-69
2022/03/20 11:30:57;;;;;;;10.45;3.45;;;;;;;12.19;21.36;101159.28;4860365;29;20393;-70
2022/03/20 11:33:24;;;;;;;7.63;2.97;;;;;;;12.15;20.89;101173.75;4839818;29;20041;-68
2022/03/20 11:35:49;;;;;;;9.65;2.88;;;;;;;12.08;21.31;101183.03;4833935;29;20055;-69
2022/03/20 11:38:24;;;;;;;5.05;2.88;;;;;;;11.99;21.44;101168.34;4852480;29;20045;-75
2022/03/20 11:41:10;;;;;;;3.95;2.45;;;;;;;11.84;21.70;101164.69;4847367;29;20056;-71
2022/03/20 11:43:44;;;;;;;4.80;2.85;;;;;;;11.59;22.13;101165.06;4843559;29;20079;-70
2022/03/20 11:46:12;;;;;;;5.18;2.40;;;;;;;11.41;23.06;101167.78;4836717;29;20063;-68
2022/03/20 11:48:37;;;;;;;5.38;3.10;;;;;;;11.21;23.39;101163.47;4849805;29;20576;-74
2022/03/20 11:51:01;;;;;;;5.30;3.53;;;;;;;11.25;23.56;101157.03;4842612;29;20414;-69
2022/03/20 11:53:27;;;;;;;6.07;3.58;;;;;;;11.12;23.64;101163.91;4851579;29;20049;-71